Aviation Digital Data Service (ADDS)

Output produced by METARs form (0557 UTC 29 May 2017)
found at http://www.aviationweather.gov/adds/metars/
 
TAF SGAS 290400Z 2906/3006 23005KT 8000 -RADZ OVC012 TX20/2918Z TN15/2910Z 
     BECMG 2908/2911 14003KT 2000 DZ BR BKN010 
     BECMG 2912/2912 4000 DZ BR BKN017
       
TAF SGES 290400Z 2906/3006 24005KT 8000 DZ SCT005 OVC015 TX21/2918Z TN15/2910Z 
     PROB40 2908/2911 17003KT 1000 DZ FG OVC006 
     BECMG 2913/2916 6000 DZ OVC010 
     BECMG 2918/2921 18005KT 9999 BKN015
       
TAF SGCO 290400Z 2906/3006 18005KT 8000 DZ OVC015 TX23/2919Z TN16/2910Z 
     BECMG 2909/2912 18003KT 3000 DZ OVC008 
     BECMG 2914/2917 6000 DZ OVC010 
     BECMG 2918/2921 14005KT 9999 BKN015